createdAt,value
2018-04-23T00:04:17.492Z,100768.30
2018-04-23T00:09:13.300Z,100772.21
2018-04-23T00:14:10.530Z,100758.66
2018-04-23T00:19:08.167Z,100738.21
2018-04-23T00:24:02.825Z,100696.90
2018-04-23T00:28:57.979Z,100668.42
2018-04-23T00:33:52.444Z,100658.05
2018-04-23T00:38:48.964Z,100660.46
2018-04-23T00:43:45.690Z,100672.58
2018-04-23T00:48:40.723Z,100674.30
2018-04-23T00:53:41.142Z,100674.69
2018-04-23T00:58:36.561Z,100674.00
2018-04-23T01:03:32.285Z,100675.22
2018-04-23T01:08:29.730Z,100672.91
2018-04-23T01:13:26.882Z,100670.47
2018-04-23T01:18:24.613Z,100671.60
2018-04-23T01:23:19.756Z,100674.77
2018-04-23T01:28:14.656Z,100703.74
2018-04-23T01:33:10.368Z,100707.84
2018-04-23T01:38:04.992Z,100711.23
2018-04-23T01:42:59.735Z,100712.56
2018-04-23T01:47:55.493Z,100716.58
2018-04-23T01:52:50.276Z,100720.41
2018-04-23T01:57:48.075Z,100735.76
2018-04-23T02:02:45.414Z,100750.94
2018-04-23T02:07:43.264Z,100758.30
2018-04-23T02:12:39.312Z,100752.95
2018-04-23T02:17:34.119Z,100752.78
2018-04-23T02:22:28.941Z,100754.37
2018-04-23T02:27:23.779Z,100745.54
2018-04-23T02:32:19.147Z,100754.89
2018-04-23T02:37:15.041Z,100761.09
2018-04-23T02:42:09.597Z,100765.70
2018-04-23T02:47:05.567Z,100780.03
2018-04-23T02:52:02.526Z,100787.06
2018-04-23T02:56:57.264Z,100794.78
2018-04-23T03:01:52.716Z,100783.28
2018-04-23T03:06:47.671Z,100788.20
2018-04-23T03:11:42.649Z,100787.59
2018-04-23T03:16:37.398Z,100798.43
2018-04-23T03:21:33.109Z,100812.48
2018-04-23T03:26:27.493Z,100799.55
2018-04-23T03:31:21.888Z,100800.98
2018-04-23T03:36:16.425Z,100803.91
2018-04-23T03:41:10.984Z,100797.34
2018-04-23T03:46:05.395Z,100792.81
2018-04-23T03:50:59.780Z,100806.08
2018-04-23T03:55:54.338Z,100791.33
2018-04-23T04:00:49.201Z,100798.43
2018-04-23T04:05:43.834Z,100778.64
2018-04-23T04:10:38.751Z,100792.25
2018-04-23T04:15:50.296Z,100795.52
2018-04-23T04:20:45.122Z,100787.05
2018-04-23T04:25:39.727Z,100780.52
2018-04-23T04:30:35.175Z,100808.02
2018-04-23T04:35:30.002Z,100815.91
2018-04-23T04:40:24.678Z,100805.61
2018-04-23T04:45:21.456Z,100804.89
2018-04-23T04:50:16.611Z,100820.59
2018-04-23T04:55:11.143Z,100833.47
2018-04-23T05:00:05.007Z,100840.92
2018-04-23T05:04:59.544Z,100848.03
2018-04-23T05:09:53.911Z,100838.98
2018-04-23T05:14:48.276Z,100856.52
2018-04-23T05:19:43.662Z,100862.17
2018-04-23T05:24:38.250Z,100867.03
2018-04-23T05:29:32.660Z,100867.74
2018-04-23T05:34:27.943Z,100879.30
2018-04-23T05:39:23.303Z,100888.37
2018-04-23T05:44:18.040Z,100881.95
2018-04-23T05:49:12.552Z,100879.57
2018-04-23T05:54:07.675Z,100884.30
2018-04-23T05:59:02.024Z,100895.86
2018-04-23T06:03:56.408Z,100899.92
2018-04-23T06:08:51.516Z,100904.63
2018-04-23T06:13:46.718Z,100910.06
2018-04-23T06:18:41.477Z,100916.62
2018-04-23T06:23:36.037Z,100916.02
2018-04-23T06:28:30.378Z,100931.14
2018-04-23T06:33:24.670Z,100929.84
2018-04-23T06:38:19.947Z,100943.90
2018-04-23T06:43:14.354Z,100942.36
2018-04-23T06:48:08.750Z,100943.62
2018-04-23T06:53:03.164Z,100941.56
2018-04-23T06:57:57.513Z,100942.90
2018-04-23T07:02:51.909Z,100951.02
2018-04-23T07:07:47.018Z,100953.35
2018-04-23T07:12:42.367Z,100959.41
2018-04-23T07:17:37.129Z,100951.84
2018-04-23T07:22:31.475Z,100960.40
2018-04-23T07:27:25.863Z,100946.84
2018-04-23T07:32:20.980Z,100950.36
2018-04-23T07:37:16.377Z,100956.44
2018-04-23T07:42:10.821Z,100958.19
2018-04-23T07:47:05.962Z,100963.85
2018-04-23T07:52:01.725Z,100956.70
2018-04-23T07:56:56.523Z,100971.66
2018-04-23T08:01:51.924Z,100975.01
2018-04-23T08:06:46.708Z,100979.64
2018-04-23T08:11:42.602Z,100987.56
2018-04-23T08:16:38.132Z,100984.52
2018-04-23T08:21:32.936Z,100982.78
2018-04-23T08:26:28.449Z,100988.28
2018-04-23T08:31:23.162Z,101001.80
2018-04-23T08:36:17.784Z,101004.50
2018-04-23T08:41:13.268Z,101009.32
2018-04-23T08:46:08.000Z,101002.07
2018-04-23T08:51:02.754Z,101018.73
2018-04-23T08:55:57.474Z,101014.22
2018-04-23T09:00:52.267Z,101019.64
2018-04-23T09:05:47.651Z,101014.97
2018-04-23T09:10:42.286Z,101018.27
2018-04-23T09:15:37.008Z,101023.70
2018-04-23T09:20:32.411Z,101013.05
2018-04-23T09:25:27.090Z,101026.19
2018-04-23T09:30:21.802Z,101033.14
2018-04-23T09:35:16.440Z,101040.36
2018-04-23T09:40:11.301Z,101045.21
2018-04-23T09:45:06.111Z,101049.30
2018-04-23T09:50:00.782Z,101041.41
2018-04-23T09:54:55.845Z,101046.67
2018-04-23T09:59:50.516Z,101044.64
2018-04-23T10:04:45.162Z,101043.23
2018-04-23T10:09:39.817Z,101040.02
2018-04-23T10:14:34.448Z,101049.91
2018-04-23T10:19:28.809Z,101052.11
2018-04-23T10:24:23.193Z,101049.56
2018-04-23T10:29:17.588Z,101058.07
2018-04-23T10:34:11.972Z,101057.98
2018-04-23T10:39:06.408Z,101064.34
2018-04-23T10:44:00.786Z,101060.50
2018-04-23T10:48:55.279Z,101060.92
2018-04-23T10:53:49.754Z,101059.36
2018-04-23T10:58:44.865Z,101046.98
2018-04-23T11:03:39.982Z,101051.78
2018-04-23T11:08:35.109Z,101051.71
2018-04-23T11:13:30.228Z,101047.02
2018-04-23T11:18:25.776Z,101056.38
2018-04-23T11:23:20.118Z,101055.48
2018-04-23T11:28:14.492Z,101058.18
2018-04-23T11:33:08.839Z,101066.97
2018-04-23T11:38:03.210Z,101068.23
2018-04-23T11:42:57.735Z,101070.92
2018-04-23T11:47:52.078Z,101072.80
2018-04-23T11:52:47.193Z,101077.28
2018-04-23T11:57:42.320Z,101073.80
2018-04-23T12:02:37.504Z,101066.80
2018-04-23T12:07:31.877Z,101065.28
2018-04-23T12:12:26.229Z,101051.83
2018-04-23T12:17:20.717Z,101054.55
2018-04-23T12:22:15.086Z,101065.03
2018-04-23T12:27:09.443Z,101055.16
2018-04-23T12:32:04.642Z,101060.95
2018-04-23T12:36:58.810Z,101056.90
2018-04-23T12:41:53.421Z,101053.29
2018-04-23T12:46:47.763Z,101051.39
2018-04-23T12:51:42.228Z,101047.44
2018-04-23T12:56:37.363Z,101037.58
2018-04-23T13:01:31.749Z,101036.20
2018-04-23T13:06:26.096Z,101034.81
2018-04-23T13:11:20.458Z,101030.27
2018-04-23T13:16:14.830Z,101027.04
2018-04-23T13:21:09.215Z,101024.95
2018-04-23T13:26:04.385Z,101024.63
2018-04-23T13:30:58.723Z,101026.08
2018-04-23T13:35:53.190Z,101023.59
2018-04-23T13:40:47.554Z,101009.14
2018-04-23T13:45:42.676Z,101011.45
2018-04-23T13:50:37.914Z,101005.14
2018-04-23T13:55:32.312Z,100999.60
2018-04-23T14:00:26.667Z,100995.88
2018-04-23T14:05:21.090Z,100998.68
2018-04-23T14:10:15.634Z,100999.86
2018-04-23T14:15:10.202Z,100984.31
2018-04-23T14:20:04.689Z,100979.48
2018-04-23T14:24:59.070Z,100979.81
2018-04-23T14:29:53.830Z,100981.97
2018-04-23T14:34:48.479Z,100992.73
2018-04-23T14:39:43.007Z,100983.94
2018-04-23T14:44:37.356Z,100989.11
2018-04-23T14:49:32.480Z,100991.05
2018-04-23T14:54:28.054Z,100986.34
2018-04-23T14:59:22.631Z,100993.69
2018-04-23T15:04:17.932Z,100993.48
2018-04-23T15:09:13.402Z,101000.40
2018-04-23T15:14:07.953Z,101003.15
2018-04-23T15:19:02.567Z,101006.95
2018-04-23T15:23:58.016Z,101010.53
2018-04-23T15:28:52.479Z,101013.80
2018-04-23T15:33:46.867Z,101010.59
2018-04-23T15:38:41.256Z,101013.19
2018-04-23T15:43:35.968Z,101021.96
2018-04-23T15:48:30.483Z,101032.03
2018-04-23T15:53:24.853Z,101025.33
2018-04-23T15:58:19.236Z,101035.29
2018-04-23T16:03:14.351Z,101029.73
2018-04-23T16:08:09.499Z,101033.87
2018-04-23T16:13:04.437Z,101028.26
2018-04-23T16:17:59.061Z,101031.22
2018-04-23T16:22:53.431Z,101032.70
2018-04-23T16:27:47.585Z,101035.42
2018-04-23T16:32:42.080Z,101024.99
2018-04-23T16:37:36.445Z,101045.02
2018-04-23T16:42:31.159Z,101046.63
2018-04-23T16:47:25.531Z,101041.23
2018-04-23T16:52:21.020Z,101044.64
2018-04-23T16:57:15.380Z,101048.19
2018-04-23T17:02:09.835Z,101044.95
2018-04-23T17:07:04.083Z,101041.09
2018-04-23T17:11:58.451Z,101038.87
2018-04-23T17:16:53.976Z,101041.43
2018-04-23T17:21:48.338Z,101039.39
2018-04-23T17:26:42.706Z,101040.08
2018-04-23T17:31:37.832Z,101041.20
2018-04-23T17:36:32.361Z,101042.95
2018-04-23T17:41:26.723Z,101048.20
2018-04-23T17:46:21.836Z,101049.48
2018-04-23T17:51:16.186Z,101061.06
2018-04-23T17:56:10.544Z,101061.59
2018-04-23T18:01:05.679Z,101064.15
2018-04-23T18:06:01.012Z,101064.14
2018-04-23T18:10:55.382Z,101068.13
2018-04-23T18:15:49.904Z,101064.72
2018-04-23T18:20:45.091Z,101067.91
2018-04-23T18:25:39.559Z,101071.55
2018-04-23T18:30:34.164Z,101064.72
2018-04-23T18:35:28.638Z,101068.09
2018-04-23T18:40:23.881Z,101069.84
2018-04-23T18:45:18.319Z,101075.56
2018-04-23T18:50:13.021Z,101075.77
2018-04-23T18:55:07.372Z,101087.48
2018-04-23T19:00:02.521Z,101090.91
2018-04-23T19:04:56.979Z,101098.92
2018-04-23T19:09:51.368Z,101097.98
2018-04-23T19:14:45.773Z,101110.00
2018-04-23T19:19:41.049Z,101106.81
2018-04-23T19:24:36.168Z,101120.04
2018-04-23T19:29:31.352Z,101121.24
2018-04-23T19:34:25.743Z,101134.17
2018-04-23T19:39:20.112Z,101135.67
2018-04-23T19:44:14.532Z,101140.64
2018-04-23T19:49:08.962Z,101148.12
2018-04-23T19:54:03.580Z,101148.96
2018-04-23T19:58:59.246Z,101152.51
2018-04-23T20:03:53.985Z,101157.39
2018-04-23T20:08:48.885Z,101165.87
2018-04-23T20:13:44.365Z,101166.84
2018-04-23T20:18:38.796Z,101166.05
2018-04-23T20:23:34.788Z,101167.11
2018-04-23T20:28:30.921Z,101159.80
2018-04-23T20:33:26.112Z,101159.36
2018-04-23T20:38:22.933Z,101161.37
2018-04-23T20:43:17.737Z,101157.53
2018-04-23T20:48:12.679Z,101157.56
2018-04-23T20:53:08.195Z,101167.84
2018-04-23T20:58:04.479Z,101168.94
2018-04-23T21:02:59.116Z,101176.90
2018-04-23T21:07:53.774Z,101183.48
2018-04-23T21:12:49.119Z,101188.16
2018-04-23T21:17:44.888Z,101183.87
2018-04-23T21:22:39.724Z,101191.99
2018-04-23T21:27:34.739Z,101195.39
2018-04-23T21:32:29.443Z,101190.72
2018-04-23T21:37:25.083Z,101195.02
2018-04-23T21:42:20.526Z,101190.42
2018-04-23T21:47:16.186Z,101185.33
2018-04-23T21:52:12.009Z,101191.91
2018-04-23T21:57:06.901Z,101197.59
2018-04-23T22:02:02.170Z,101202.19
2018-04-23T22:06:57.013Z,101210.25
2018-04-23T22:11:52.857Z,101214.92
2018-04-23T22:16:47.623Z,101225.94
2018-04-23T22:21:43.622Z,101227.68
2018-04-23T22:26:40.380Z,101235.27
2018-04-23T22:31:35.247Z,101228.29
2018-04-23T22:36:30.326Z,101225.76
2018-04-23T22:41:25.216Z,101227.55
2018-04-23T22:46:22.333Z,101224.34
2018-04-23T22:51:17.593Z,101230.98
2018-04-23T22:56:12.381Z,101237.50
2018-04-23T23:01:08.861Z,101237.73
2018-04-23T23:06:03.485Z,101247.89
2018-04-23T23:10:59.415Z,101249.16
2018-04-23T23:15:53.822Z,101260.16
2018-04-23T23:20:48.370Z,101258.84
2018-04-23T23:25:43.475Z,101262.29
2018-04-23T23:30:38.151Z,101268.67
2018-04-23T23:35:32.640Z,101270.72
2018-04-23T23:40:26.996Z,101269.86
2018-04-23T23:45:21.526Z,101267.30
2018-04-23T23:50:16.423Z,101266.73
2018-04-23T23:55:11.695Z,101267.38
